Time;durP1;ratioP1;P1;durP2;ratioP2;P2;SDS_P1;SDS_P2;PMS_P1;PMS_P2;Temp;Humidity;BMP_temperature;BMP_pressure;BME280_temperature;BME280_humidity;BME280_pressure;Samples;Min_cycle;Max_cycle;Signal;HPM_P1;HPM_P2
2021/12/18 00:04:20;;;;;;;18.50;9.63;;;;;;;6.58;100.00;103770.22;10245586;28;20079;-68
2021/12/18 00:09:17;;;;;;;16.77;10.07;;;;;;;6.68;100.00;103757.00;10261246;28;20049;-68
2021/12/18 00:14:13;;;;;;;15.55;8.88;;;;;;;6.66;100.00;103754.50;10259832;28;20495;-67
2021/12/18 00:19:10;;;;;;;12.10;7.72;;;;;;;6.60;100.00;103746.38;10265157;28;20132;-68
2021/12/18 00:24:08;;;;;;;11.88;6.22;;;;;;;6.48;100.00;103744.34;10258604;28;20076;-67
2021/12/18 00:29:04;;;;;;;10.00;6.45;;;;;;;6.53;100.00;103752.69;10272066;28;20125;-69
2021/12/18 00:34:00;;;;;;;10.50;5.80;;;;;;;6.57;100.00;103744.06;10270086;28;20037;-69
2021/12/18 00:38:57;;;;;;;9.80;5.32;;;;;;;6.57;100.00;103757.66;10268152;28;20076;-68
2021/12/18 00:44:04;;;;;;;11.13;5.95;;;;;;;6.62;100.00;103760.59;10267932;28;20053;-69
2021/12/18 00:49:01;;;;;;;11.95;7.90;;;;;;;6.60;100.00;103754.53;10267089;28;20094;-69
2021/12/18 00:53:58;;;;;;;10.50;5.85;;;;;;;6.52;100.00;103761.91;10270005;28;20041;-69
2021/12/18 00:58:55;;;;;;;10.30;6.53;;;;;;;6.50;100.00;103753.13;10273700;28;20055;-69
2021/12/18 01:03:55;;;;;;;12.60;7.40;;;;;;;6.56;100.00;103750.56;10273848;28;20041;-68
2021/12/18 01:08:55;;;;;;;10.60;6.05;;;;;;;6.53;100.00;103752.69;10268766;28;20089;-67
2021/12/18 01:24:19;;;;;;;7.38;4.18;;;;;;;6.52;100.00;103751.03;10264184;28;20571;-68
2021/12/18 01:29:16;;;;;;;9.25;4.05;;;;;;;6.51;100.00;103749.34;10263726;28;20191;-69
2021/12/18 01:34:12;;;;;;;8.45;4.05;;;;;;;6.53;100.00;103755.41;10267457;28;20087;-69
2021/12/18 01:39:11;;;;;;;8.73;4.00;;;;;;;6.56;100.00;103756.84;10263201;28;20077;-69
2021/12/18 01:44:37;;;;;;;8.07;3.92;;;;;;;6.50;100.00;103747.69;10266254;28;20191;-69
2021/12/18 01:54:44;;;;;;;14.73;7.35;;;;;;;6.52;100.00;103748.31;10265062;28;20106;-67
2021/12/18 01:59:47;;;;;;;21.20;8.63;;;;;;;6.43;100.00;103740.59;10267658;28;20132;-68
2021/12/18 02:04:44;;;;;;;16.50;7.63;;;;;;;6.51;100.00;103743.91;10251106;28;20045;-69
2021/12/18 02:25:35;;;;;;;10.68;4.70;;;;;;;6.52;100.00;103734.72;10252959;28;20080;-69
2021/12/18 02:30:32;;;;;;;14.35;5.93;;;;;;;6.47;100.00;103731.78;10266847;28;20049;-69
2021/12/18 02:35:32;;;;;;;14.95;6.00;;;;;;;6.44;100.00;103737.66;10264332;28;20128;-68
2021/12/18 02:45:45;;;;;;;14.95;5.25;;;;;;;6.34;100.00;103731.88;10262438;28;20065;-68
2021/12/18 02:50:44;;;;;;;16.17;6.03;;;;;;;6.39;100.00;103726.59;10260000;28;20084;-69
2021/12/18 02:55:41;;;;;;;15.70;6.22;;;;;;;6.39;100.00;103721.16;10263216;28;20056;-69
2021/12/18 03:00:37;;;;;;;13.48;5.30;;;;;;;6.42;100.00;103712.56;10260729;28;20048;-68
2021/12/18 03:05:41;;;;;;;13.23;4.85;;;;;;;6.36;100.00;103702.59;10260266;28;20151;-68
2021/12/18 03:26:22;;;;;;;13.93;6.38;;;;;;;6.44;100.00;103682.47;10261208;28;20554;-68
2021/12/18 03:31:19;;;;;;;14.70;5.93;;;;;;;6.43;100.00;103686.22;10267681;28;20087;-68
2021/12/18 03:36:15;;;;;;;15.30;6.82;;;;;;;6.36;100.00;103683.56;10263955;28;20040;-68
2021/12/18 03:41:12;;;;;;;16.30;6.55;;;;;;;6.41;100.00;103677.47;10266618;28;20076;-68
2021/12/18 03:46:08;;;;;;;10.82;5.22;;;;;;;6.47;100.00;103677.41;10261866;28;20492;-69
2021/12/18 03:51:05;;;;;;;9.80;4.47;;;;;;;6.62;100.00;103673.59;10261605;28;20187;-69
2021/12/18 03:56:02;;;;;;;12.35;4.55;;;;;;;6.60;100.00;103681.13;10262976;28;20037;-70
2021/12/18 04:00:59;;;;;;;11.43;4.85;;;;;;;6.51;100.00;103673.22;10260707;28;20095;-67
2021/12/18 04:05:56;;;;;;;14.23;5.72;;;;;;;6.60;100.00;103664.81;10258744;28;20044;-69
2021/12/18 04:10:52;;;;;;;10.52;4.78;;;;;;;6.55;100.00;103665.47;10267357;28;20091;-68
2021/12/18 04:15:49;;;;;;;9.57;4.30;;;;;;;6.57;100.00;103665.25;10261996;28;20111;-68
2021/12/18 04:20:46;;;;;;;10.77;4.35;;;;;;;6.52;100.00;103665.91;10258639;28;20342;-69
2021/12/18 04:25:43;;;;;;;9.77;3.72;;;;;;;6.57;100.00;103665.25;10262605;28;20464;-69
2021/12/18 04:30:39;;;;;;;9.68;4.63;;;;;;;6.59;100.00;103663.13;10263867;28;20125;-67
2021/12/18 04:35:36;;;;;;;9.27;4.30;;;;;;;6.61;100.00;103661.03;10256146;28;20037;-69
2021/12/18 04:40:34;;;;;;;11.30;5.28;;;;;;;6.61;100.00;103652.88;10253513;28;20037;-69
2021/12/18 04:45:31;;;;;;;10.57;4.97;;;;;;;6.62;100.00;103647.22;10263307;28;20079;-70
2021/12/18 04:50:27;;;;;;;10.63;5.28;;;;;;;6.64;100.00;103645.13;10266277;28;20391;-70
2021/12/18 04:55:24;;;;;;;10.27;4.57;;;;;;;6.66;100.00;103636.72;10272203;28;20405;-69
2021/12/18 05:00:27;;;;;;;7.97;3.97;;;;;;;6.65;100.00;103629.66;10264986;28;20107;-70
2021/12/18 05:05:24;;;;;;;9.00;4.57;;;;;;;6.60;100.00;103629.47;10254015;28;20076;-70
2021/12/18 05:10:20;;;;;;;9.43;4.55;;;;;;;6.62;100.00;103630.09;10269434;28;20073;-69
2021/12/18 05:15:17;;;;;;;11.13;4.53;;;;;;;6.63;100.00;103627.13;10261754;28;20077;-70
2021/12/18 05:20:13;;;;;;;7.88;4.15;;;;;;;6.60;100.00;103626.75;10266557;28;20784;-71
2021/12/18 05:25:10;;;;;;;7.70;3.70;;;;;;;6.64;100.00;103633.44;10257170;28;20041;-69
2021/12/18 05:30:10;;;;;;;7.03;3.30;;;;;;;6.57;100.00;103629.91;10260244;28;20502;-70
2021/12/18 05:35:07;;;;;;;6.35;2.50;;;;;;;6.53;100.00;103627.63;10269998;28;20080;-70
2021/12/18 05:40:04;;;;;;;5.93;2.65;;;;;;;6.56;100.00;103620.09;10257220;28;20158;-70
2021/12/18 05:45:04;;;;;;;4.93;2.42;;;;;;;6.53;100.00;103622.19;10260576;28;20124;-68
2021/12/18 05:50:02;;;;;;;5.95;2.55;;;;;;;6.45;100.00;103625.19;10264364;28;20467;-70
2021/12/18 05:54:59;;;;;;;6.93;2.90;;;;;;;6.39;100.00;103620.63;10262992;28;20091;-70
2021/12/18 05:59:55;;;;;;;6.88;3.33;;;;;;;6.43;100.00;103624.56;10280158;28;20132;-71
2021/12/18 06:04:52;;;;;;;8.07;4.20;;;;;;;6.36;100.00;103623.78;10262692;28;20045;-70
2021/12/18 06:09:48;;;;;;;8.63;5.18;;;;;;;6.47;100.00;103628.50;10263341;28;20479;-70
2021/12/18 06:14:45;;;;;;;7.28;4.55;;;;;;;6.54;100.00;103617.56;10265253;28;20068;-70
2021/12/18 06:19:42;;;;;;;5.65;3.25;;;;;;;6.49;100.00;103615.50;10269810;28;20098;-71
2021/12/18 06:24:38;;;;;;;5.57;2.92;;;;;;;6.46;100.00;103621.41;10264146;28;20471;-71
2021/12/18 06:29:38;;;;;;;4.28;1.73;;;;;;;6.41;100.00;103621.22;10261455;28;20053;-71
2021/12/18 06:34:35;;;;;;;3.53;1.25;;;;;;;6.30;100.00;103611.06;10261900;28;20103;-70
2021/12/18 06:39:31;;;;;;;3.38;1.30;;;;;;;6.27;100.00;103611.50;10249185;28;20122;-69
2021/12/18 06:44:28;;;;;;;4.25;2.00;;;;;;;6.25;100.00;103627.19;10251079;28;20797;-69
2021/12/18 06:49:25;;;;;;;4.25;1.30;;;;;;;6.28;100.00;103621.31;10243333;28;20156;-69
2021/12/18 06:54:21;;;;;;;4.50;1.23;;;;;;;6.25;100.00;103619.03;10252966;28;20042;-70
2021/12/18 06:59:18;;;;;;;5.47;1.70;;;;;;;6.28;100.00;103624.03;10246678;28;20099;-69
2021/12/18 07:04:14;;;;;;;5.65;2.05;;;;;;;6.26;100.00;103626.94;10249093;28;20546;-69
2021/12/18 07:09:10;;;;;;;5.72;2.50;;;;;;;6.08;100.00;103630.41;10251618;28;20076;-72
2021/12/18 07:14:07;;;;;;;5.45;2.50;;;;;;;6.20;100.00;103624.28;10244897;28;20076;-72
2021/12/18 07:19:03;;;;;;;92.05;11.18;;;;;;;6.21;100.00;103615.06;10241886;28;20135;-71
2021/12/18 07:24:00;;;;;;;9.45;4.20;;;;;;;6.20;100.00;103610.72;10238793;28;20128;-72
2021/12/18 07:28:56;;;;;;;10.20;4.40;;;;;;;6.24;100.00;103611.91;10251817;28;20090;-68
2021/12/18 07:33:53;;;;;;;9.27;2.80;;;;;;;6.25;100.00;103621.75;10251378;28;20065;-68
2021/12/18 07:38:50;;;;;;;4.53;1.77;;;;;;;6.29;100.00;103620.28;10242292;28;20131;-69
2021/12/18 07:43:46;;;;;;;4.63;1.95;;;;;;;6.23;100.00;103626.56;10244045;28;20095;-69
2021/12/18 07:48:44;;;;;;;4.18;1.50;;;;;;;6.23;100.00;103612.97;10241022;28;20083;-69
2021/12/18 07:53:41;;;;;;;6.32;1.95;;;;;;;6.25;100.00;103627.19;10258760;28;20080;-68
2021/12/18 07:58:39;;;;;;;6.93;2.13;;;;;;;6.20;100.00;103625.13;10253098;28;20045;-68
2021/12/18 08:03:36;;;;;;;7.07;2.13;;;;;;;6.25;100.00;103619.84;10239692;28;20136;-69
2021/12/18 08:08:32;;;;;;;8.95;1.70;;;;;;;6.26;100.00;103616.06;10240060;28;20063;-69
2021/12/18 08:13:29;;;;;;;3.90;1.35;;;;;;;6.22;100.00;103614.88;10246331;28;20045;-68
2021/12/18 08:18:25;;;;;;;3.50;1.35;;;;;;;6.27;100.00;103606.06;10246395;28;20083;-70
2021/12/18 08:23:22;;;;;;;4.30;1.05;;;;;;;6.21;100.00;103601.50;10244468;28;20080;-70
2021/12/18 08:28:19;;;;;;;6.82;0.98;;;;;;;6.25;100.00;103608.16;10261352;28;20068;-69
2021/12/18 08:33:15;;;;;;;2.53;1.08;;;;;;;6.25;100.00;103608.16;10267224;28;20077;-67
2021/12/18 08:38:14;;;;;;;1.05;0.45;;;;;;;6.29;100.00;103615.66;10270657;28;20132;-70
2021/12/18 08:43:11;;;;;;;0.68;0.22;;;;;;;6.33;100.00;103607.88;10255698;28;20103;-70
2021/12/18 08:48:08;;;;;;;1.70;0.20;;;;;;;6.45;100.00;103600.72;10247201;28;20061;-70
2021/12/18 08:53:04;;;;;;;1.25;0.70;;;;;;;6.34;100.00;103606.03;10253731;28;20053;-70
2021/12/18 08:58:01;;;;;;;1.45;0.30;;;;;;;6.27;100.00;103601.47;10250646;28;20126;-69
2021/12/18 09:02:59;;;;;;;1.85;0.50;;;;;;;6.36;100.00;103588.44;10251363;28;20124;-69
2021/12/18 09:07:56;;;;;;;1.55;0.52;;;;;;;6.41;100.00;103602.22;10252353;28;20048;-68
2021/12/18 09:12:56;;;;;;;0.55;0.30;;;;;;;6.32;100.00;103598.09;10255555;28;20095;-70
2021/12/18 09:17:53;;;;;;;1.08;0.30;;;;;;;6.32;100.00;103592.66;10245501;28;20459;-74
2021/12/18 09:22:50;;;;;;;0.45;0.30;;;;;;;6.33;100.00;103599.72;10243257;28;20049;-71
2021/12/18 09:27:46;;;;;;;0.65;0.10;;;;;;;6.39;100.00;103598.88;10249635;28;20533;-68
2021/12/18 09:32:43;;;;;;;0.13;0.00;;;;;;;6.39;100.00;103588.00;10250465;28;20079;-70
2021/12/18 09:37:40;;;;;;;0.32;0.10;;;;;;;6.54;100.00;103593.13;10245134;28;20064;-71
2021/12/18 09:42:38;;;;;;;1.13;0.40;;;;;;;6.46;100.00;103583.34;10244323;28;20130;-69
2021/12/18 09:47:34;;;;;;;0.60;0.30;;;;;;;6.51;100.00;103571.81;10248942;28;20098;-70
2021/12/18 09:52:35;;;;;;;0.75;0.32;;;;;;;6.40;100.00;103575.25;10245502;28;20120;-68
2021/12/18 09:57:32;;;;;;;1.05;0.40;;;;;;;6.55;100.00;103564.06;10247524;28;20049;-70
2021/12/18 10:02:28;;;;;;;1.38;0.40;;;;;;;6.55;100.00;103574.94;10259240;28;20191;-70
2021/12/18 10:07:27;;;;;;;1.65;0.55;;;;;;;6.59;100.00;103565.25;10262713;28;20073;-70
2021/12/18 10:12:26;;;;;;;2.72;0.95;;;;;;;6.58;100.00;103552.75;10265266;28;20088;-69
2021/12/18 10:17:25;;;;;;;3.83;1.55;;;;;;;6.62;100.00;103567.56;10257541;28;20079;-70
2021/12/18 10:22:21;;;;;;;4.30;0.95;;;;;;;6.70;100.00;103545.53;10259482;28;20431;-68
2021/12/18 10:27:24;;;;;;;5.65;1.30;;;;;;;6.79;100.00;103543.34;10254414;28;20053;-69
2021/12/18 10:32:24;;;;;;;4.80;2.22;;;;;;;6.80;100.00;103534.13;10251916;28;20037;-68
2021/12/18 10:37:24;;;;;;;7.53;2.05;;;;;;;6.80;100.00;103529.56;10250145;28;20049;-68
2021/12/18 10:42:29;;;;;;;6.85;2.50;;;;;;;6.90;100.00;103523.59;10250121;28;20149;-68
2021/12/18 10:47:40;;;;;;;5.68;2.83;;;;;;;6.99;100.00;103515.97;10247229;28;20570;-68
2021/12/18 10:52:37;;;;;;;5.93;2.83;;;;;;;7.12;100.00;103510.38;10253876;28;20068;-69
2021/12/18 10:57:34;;;;;;;9.27;3.45;;;;;;;7.08;100.00;103503.75;10247418;28;20069;-68
2021/12/18 11:02:40;;;;;;;11.02;3.63;;;;;;;7.17;100.00;103496.91;10242678;28;20576;-68
2021/12/18 11:07:42;;;;;;;9.02;3.97;;;;;;;7.20;100.00;103492.94;10252055;28;20406;-69
2021/12/18 11:17:54;;;;;;;17.45;3.75;;;;;;;7.27;100.00;103480.91;10250559;28;20053;-70
2021/12/18 11:22:52;;;;;;;16.48;6.90;;;;;;;7.33;100.00;103471.84;10258863;28;20519;-69
2021/12/18 11:27:54;;;;;;;5.88;2.40;;;;;;;7.34;100.00;103459.88;10257983;28;20072;-70
2021/12/18 11:32:54;;;;;;;11.30;2.20;;;;;;;7.38;100.00;103461.09;10252093;28;20076;-69
2021/12/18 11:38:01;;;;;;;9.82;2.45;;;;;;;7.49;100.00;103453.19;10260111;28;20502;-70
2021/12/18 11:42:58;;;;;;;9.75;2.42;;;;;;;7.55;100.00;103439.50;10253739;28;20068;-70
2021/12/18 11:47:56;;;;;;;9.55;2.33;;;;;;;7.58;100.00;103439.03;10254050;28;20518;-70
2021/12/18 11:52:59;;;;;;;5.82;2.40;;;;;;;7.57;100.00;103431.09;10252912;28;20125;-69
2021/12/18 11:58:00;;;;;;;12.05;2.15;;;;;;;7.61;100.00;103424.13;10247630;28;20041;-69
2021/12/18 12:02:59;;;;;;;5.65;2.25;;;;;;;7.63;100.00;103416.56;10258743;28;20557;-71
2021/12/18 12:08:32;;;;;;;10.70;2.67;;;;;;;7.73;100.00;103422.28;10250208;28;20052;-69
2021/12/18 12:13:58;;;;;;;10.65;2.95;;;;;;;7.75;100.00;103427.47;10247678;28;20148;-69
2021/12/18 12:19:07;;;;;;;13.95;2.45;;;;;;;7.91;100.00;103431.44;10249394;28;20059;-70
2021/12/18 12:24:07;;;;;;;5.20;2.63;;;;;;;7.91;100.00;103412.34;10258006;28;20088;-70
2021/12/18 12:29:06;;;;;;;14.70;2.90;;;;;;;7.97;100.00;103408.72;10254870;28;20054;-70
2021/12/18 12:34:26;;;;;;;10.25;2.90;;;;;;;8.02;100.00;103401.47;10254708;28;20092;-70
2021/12/18 12:39:24;;;;;;;11.60;3.15;;;;;;;8.09;100.00;103390.47;10255935;28;20041;-70
2021/12/18 12:44:28;;;;;;;13.00;2.97;;;;;;;8.14;100.00;103385.13;10267710;28;20084;-70
2021/12/18 12:49:28;;;;;;;17.33;2.53;;;;;;;8.22;100.00;103373.06;10264971;28;20083;-70
2021/12/18 12:54:45;;;;;;;6.80;1.77;;;;;;;8.29;100.00;103370.22;10272003;28;20980;-69
2021/12/18 12:59:42;;;;;;;7.45;1.92;;;;;;;8.33;100.00;103364.06;10270492;28;20118;-71
2021/12/18 13:04:39;;;;;;;6.72;1.90;;;;;;;8.34;100.00;103359.44;10253348;28;20041;-68
2021/12/18 13:09:44;;;;;;;12.20;2.40;;;;;;;8.34;100.00;103354.00;10248493;28;20467;-70
2021/12/18 13:14:44;;;;;;;14.88;3.08;;;;;;;8.36;100.00;103351.84;10249060;28;20076;-71
2021/12/18 13:20:09;;;;;;;14.98;3.40;;;;;;;8.38;100.00;103344.28;10250591;28;20404;-70
2021/12/18 13:25:15;;;;;;;10.07;2.67;;;;;;;8.40;100.00;103342.16;10251406;28;20132;-71
2021/12/18 13:30:16;;;;;;;15.15;2.53;;;;;;;8.33;100.00;103335.97;10247344;28;20395;-70
2021/12/18 13:35:18;;;;;;;11.80;3.67;;;;;;;8.33;100.00;103333.22;10251156;28;20052;-69
2021/12/18 13:40:15;;;;;;;11.00;2.72;;;;;;;8.26;100.00;103340.72;10248476;28;20073;-70
2021/12/18 13:45:12;;;;;;;13.00;2.80;;;;;;;8.20;100.00;103332.41;10245700;28;20463;-70
2021/12/18 13:50:16;;;;;;;7.65;2.47;;;;;;;8.20;100.00;103321.53;10251183;28;20139;-70
2021/12/18 13:55:35;;;;;;;15.25;2.50;;;;;;;8.17;100.00;103315.72;10252645;28;20044;-69
2021/12/18 14:01:00;;;;;;;15.57;2.53;;;;;;;8.17;100.00;103310.28;10246380;28;20063;-68
2021/12/18 14:06:02;;;;;;;7.47;2.17;;;;;;;8.14;100.00;103313.47;10239218;28;20173;-69
2021/12/18 14:11:01;;;;;;;11.90;2.40;;;;;;;8.10;100.00;103315.84;10253300;28;20450;-71
2021/12/18 14:16:06;;;;;;;7.47;1.20;;;;;;;8.05;100.00;103291.19;10253987;28;20119;-69
2021/12/18 14:21:04;;;;;;;7.05;2.38;;;;;;;8.04;100.00;103300.44;10256016;28;20135;-69
2021/12/18 14:26:25;;;;;;;8.27;1.85;;;;;;;7.98;100.00;103295.94;10239457;28;20590;-71
2021/12/18 14:31:34;;;;;;;8.90;1.73;;;;;;;7.92;100.00;103294.16;10251957;28;20094;-70
2021/12/18 14:36:43;;;;;;;12.00;2.78;;;;;;;7.84;100.00;103283.63;10250264;28;20049;-69
2021/12/18 14:41:50;;;;;;;8.15;1.60;;;;;;;7.82;100.00;103292.03;10243132;28;20045;-69
2021/12/18 14:46:47;;;;;;;12.73;2.00;;;;;;;7.75;100.00;103296.75;10255135;28;20080;-69
2021/12/18 14:51:59;;;;;;;10.25;2.47;;;;;;;7.68;100.00;103285.13;10254061;28;20044;-70
2021/12/18 14:57:15;;;;;;;13.13;2.72;;;;;;;7.62;100.00;103297.81;10260848;28;20511;-71
2021/12/18 15:02:12;;;;;;;16.55;2.88;;;;;;;7.55;100.00;103294.38;10261032;28;20046;-70
2021/12/18 15:07:26;;;;;;;9.65;1.70;;;;;;;7.52;100.00;103297.53;10256222;28;20083;-70
2021/12/18 15:12:25;;;;;;;11.32;2.28;;;;;;;7.44;100.00;103300.63;10264263;28;20048;-70
2021/12/18 15:17:21;;;;;;;17.45;3.70;;;;;;;7.41;100.00;103306.53;10267090;28;20449;-69
2021/12/18 15:22:20;;;;;;;19.38;3.72;;;;;;;7.32;100.00;103304.13;10265267;28;20056;-69
2021/12/18 15:27:16;;;;;;;14.48;4.38;;;;;;;7.31;100.00;103297.06;10262160;28;20076;-70
2021/12/18 15:32:15;;;;;;;10.82;2.80;;;;;;;7.29;100.00;103287.47;10260923;28;20054;-69
2021/12/18 15:37:14;;;;;;;13.80;3.38;;;;;;;7.18;100.00;103289.06;10262790;28;20091;-69
2021/12/18 15:42:13;;;;;;;15.80;3.65;;;;;;;7.16;100.00;103286.56;10261280;28;20491;-70
2021/12/18 15:47:10;;;;;;;14.82;2.88;;;;;;;7.09;100.00;103277.69;10260551;28;20653;-69
2021/12/18 15:52:06;;;;;;;17.50;2.42;;;;;;;7.07;100.00;103284.41;10264341;28;20069;-69
2021/12/18 15:57:03;;;;;;;11.10;2.88;;;;;;;7.00;100.00;103270.09;10264681;28;20481;-70
2021/12/18 16:02:00;;;;;;;7.60;2.15;;;;;;;6.95;100.00;103277.03;10258486;28;20527;-70
2021/12/18 16:06:57;;;;;;;11.32;2.00;;;;;;;6.92;100.00;103268.53;10243342;28;20068;-70
2021/12/18 16:11:54;;;;;;;17.52;3.42;;;;;;;6.89;100.00;103275.25;10254139;28;20453;-70
2021/12/18 16:16:50;;;;;;;26.20;2.80;;;;;;;6.88;100.00;103264.59;10260015;28;20083;-70
2021/12/18 16:21:47;;;;;;;22.98;3.85;;;;;;;6.84;100.00;103258.78;10256135;28;20498;-71
2021/12/18 16:26:45;;;;;;;13.80;2.70;;;;;;;6.83;100.00;103259.84;10254956;28;20033;-70
2021/12/18 16:31:42;;;;;;;13.07;2.97;;;;;;;6.79;100.00;103255.09;10265313;28;20041;-70
2021/12/18 16:36:39;;;;;;;11.27;2.55;;;;;;;6.81;100.00;103263.88;10263436;28;20045;-70
2021/12/18 16:41:36;;;;;;;16.65;3.15;;;;;;;6.74;100.00;103258.50;10266329;28;20141;-70
2021/12/18 16:46:32;;;;;;;16.67;2.63;;;;;;;6.73;100.00;103251.44;10265241;28;20067;-69
2021/12/18 16:51:29;;;;;;;16.42;2.60;;;;;;;6.71;100.00;103253.56;10267812;28;20079;-69
2021/12/18 16:56:26;;;;;;;17.10;3.20;;;;;;;6.76;100.00;103261.84;10266293;28;20127;-69
2021/12/18 17:01:22;;;;;;;13.43;2.75;;;;;;;6.78;100.00;103265.16;10267532;28;20131;-68
2021/12/18 17:06:19;;;;;;;14.60;4.05;;;;;;;6.79;100.00;103258.66;10269646;28;20080;-68
2021/12/18 17:11:15;;;;;;;12.68;3.67;;;;;;;6.80;100.00;103260.31;10265811;28;20075;-68
2021/12/18 17:16:12;;;;;;;17.33;3.10;;;;;;;6.84;100.00;103258.78;10257469;28;20065;-69
2021/12/18 17:21:13;;;;;;;12.05;2.97;;;;;;;6.84;100.00;103252.53;10253384;28;20458;-69
2021/12/18 17:26:13;;;;;;;30.55;4.40;;;;;;;6.79;100.00;103249.66;10254193;28;20507;-69
2021/12/18 17:31:10;;;;;;;16.92;4.57;;;;;;;6.84;100.00;103253.34;10266442;28;20077;-70
2021/12/18 17:36:09;;;;;;;13.43;4.22;;;;;;;6.83;100.00;103264.47;10264603;28;20088;-69
2021/12/18 17:41:06;;;;;;;19.67;3.70;;;;;;;6.88;100.00;103265.44;10270511;28;20146;-69
2021/12/18 17:46:03;;;;;;;27.92;5.85;;;;;;;6.86;100.00;103262.09;10268198;28;20072;-69
2021/12/18 17:51:01;;;;;;;12.95;4.15;;;;;;;6.94;100.00;103258.25;10262625;28;20174;-69
2021/12/18 17:55:58;;;;;;;15.88;4.25;;;;;;;7.03;100.00;103253.28;10269044;28;20041;-69
2021/12/18 18:00:55;;;;;;;15.77;4.35;;;;;;;7.06;100.00;103239.25;10266814;28;20426;-69
2021/12/18 18:05:51;;;;;;;15.60;4.65;;;;;;;7.04;100.00;103253.06;10267922;28;20049;-69
2021/12/18 18:10:50;;;;;;;10.32;3.08;;;;;;;7.17;100.00;103235.69;10257858;28;20095;-69
2021/12/18 18:15:48;;;;;;;12.93;3.70;;;;;;;7.19;100.00;103238.19;10265950;28;20502;-69
2021/12/18 18:20:47;;;;;;;15.60;4.30;;;;;;;7.24;100.00;103231.00;10264778;28;20096;-69
2021/12/18 18:25:45;;;;;;;13.02;3.72;;;;;;;7.29;100.00;103216.72;10260585;28;20049;-69
2021/12/18 18:30:42;;;;;;;15.27;5.20;;;;;;;7.29;100.00;103206.63;10263332;28;20156;-69
2021/12/18 18:35:54;;;;;;;11.43;3.65;;;;;;;7.28;100.00;103234.91;10256755;28;20760;-70
2021/12/18 18:40:50;;;;;;;10.38;3.58;;;;;;;7.28;100.00;103204.97;10262738;28;20045;-70
2021/12/18 18:45:47;;;;;;;12.10;3.40;;;;;;;7.25;100.00;103202.72;10261250;28;20446;-70
2021/12/18 18:50:43;;;;;;;9.10;2.42;;;;;;;7.34;100.00;103198.59;10254611;28;20069;-70
2021/12/18 18:55:40;;;;;;;14.45;3.22;;;;;;;7.24;100.00;103203.81;10266784;28;20552;-70
2021/12/18 19:00:36;;;;;;;14.32;3.55;;;;;;;7.32;100.00;103181.66;10261178;28;20088;-70
2021/12/18 19:05:33;;;;;;;16.33;3.75;;;;;;;7.36;100.00;103201.91;10263196;28;20071;-70
2021/12/18 19:10:31;;;;;;;8.65;3.60;;;;;;;7.32;100.00;103184.38;10262934;28;20103;-70
2021/12/18 19:15:28;;;;;;;7.82;3.30;;;;;;;7.26;100.00;103190.75;10263977;28;20080;-70
2021/12/18 19:20:29;;;;;;;8.57;3.28;;;;;;;7.23;100.00;103188.53;10259087;28;20048;-71
2021/12/18 19:25:26;;;;;;;7.78;3.33;;;;;;;7.28;100.00;103180.47;10258647;28;20426;-70
2021/12/18 19:30:27;;;;;;;16.08;4.63;;;;;;;7.21;100.00;103166.16;10264658;28;20045;-70
2021/12/18 19:35:27;;;;;;;10.02;2.72;;;;;;;7.15;100.00;103169.84;10263678;28;20560;-70
2021/12/18 19:40:27;;;;;;;18.65;3.05;;;;;;;7.15;100.00;103167.13;10257064;28;20052;-70
2021/12/18 19:45:25;;;;;;;11.48;2.83;;;;;;;7.07;100.00;103165.53;10248421;28;20124;-70
2021/12/18 19:50:22;;;;;;;10.20;2.65;;;;;;;7.09;100.00;103178.91;10261200;28;20214;-70
2021/12/18 19:55:20;;;;;;;7.68;2.13;;;;;;;7.10;100.00;103169.69;10245594;28;20155;-70
2021/12/18 20:00:18;;;;;;;9.27;3.03;;;;;;;7.13;100.00;103163.78;10251523;28;20079;-69
2021/12/18 20:05:19;;;;;;;16.55;2.45;;;;;;;7.07;100.00;103149.22;10242147;28;20083;-70
2021/12/18 20:10:17;;;;;;;11.05;2.60;;;;;;;7.08;100.00;103166.41;10238158;28;20648;-69
2021/12/18 20:15:15;;;;;;;13.65;2.67;;;;;;;7.06;100.00;103135.88;10265722;28;20079;-70
2021/12/18 20:20:13;;;;;;;5.93;2.28;;;;;;;6.99;100.00;103132.44;10270072;28;20499;-69
2021/12/18 20:25:11;;;;;;;6.90;1.98;;;;;;;7.04;100.00;103143.44;10266100;28;20068;-70
2021/12/18 20:30:10;;;;;;;5.97;1.83;;;;;;;7.06;100.00;103125.00;10264985;28;20053;-70
2021/12/18 20:35:07;;;;;;;7.95;1.63;;;;;;;7.11;100.00;103116.94;10262385;28;20141;-70
2021/12/18 20:40:05;;;;;;;8.27;2.72;;;;;;;7.10;100.00;103128.88;10268039;28;20453;-70
2021/12/18 20:45:01;;;;;;;10.13;2.95;;;;;;;7.07;100.00;103115.75;10265679;28;20057;-69
2021/12/18 20:49:58;;;;;;;6.57;1.67;;;;;;;7.06;100.00;103114.09;10267407;28;20144;-69
2021/12/18 20:54:54;;;;;;;10.88;1.40;;;;;;;7.08;100.00;103112.00;10265688;28;20056;-69
2021/12/18 20:59:51;;;;;;;8.45;2.28;;;;;;;7.09;100.00;103108.19;10262917;28;20075;-69
2021/12/18 21:04:47;;;;;;;8.98;1.80;;;;;;;7.05;100.00;103098.84;10263386;28;20140;-69
2021/12/18 21:09:45;;;;;;;6.47;1.90;;;;;;;7.12;100.00;103102.25;10264286;28;20094;-69
2021/12/18 21:14:41;;;;;;;8.85;1.60;;;;;;;7.07;100.00;103102.16;10264083;28;20407;-69
2021/12/18 21:19:38;;;;;;;7.60;2.08;;;;;;;7.05;100.00;103090.69;10265816;28;20477;-69
2021/12/18 21:24:35;;;;;;;5.85;1.90;;;;;;;7.07;100.00;103081.22;10268353;28;20523;-69
2021/12/18 21:29:31;;;;;;;6.75;2.63;;;;;;;7.13;100.00;103083.00;10252707;28;20583;-69
2021/12/18 21:39:45;;;;;;;9.02;1.88;;;;;;;7.06;100.00;103070.59;10258939;28;20045;-69
2021/12/18 21:44:43;;;;;;;6.32;2.78;;;;;;;7.12;100.00;103061.47;10260192;28;20859;-68
2021/12/18 21:49:41;;;;;;;6.05;2.17;;;;;;;7.06;100.00;103060.53;10260430;28;20533;-68
2021/12/18 21:54:38;;;;;;;5.95;1.45;;;;;;;7.02;100.00;103066.69;10260442;28;20080;-69
2021/12/18 21:59:36;;;;;;;5.80;1.80;;;;;;;7.00;100.00;103057.91;10253003;28;20133;-69
2021/12/18 22:04:33;;;;;;;6.68;2.03;;;;;;;7.02;100.00;103053.06;10253832;28;20041;-69
2021/12/18 22:09:31;;;;;;;4.13;1.20;;;;;;;6.87;100.00;103046.22;10257578;28;20500;-69
2021/12/18 22:14:27;;;;;;;5.93;1.10;;;;;;;6.92;100.00;103037.34;10262617;28;20454;-69
2021/12/18 22:19:25;;;;;;;2.08;0.65;;;;;;;6.87;100.00;103042.66;10262336;28;20100;-68
2021/12/18 22:24:22;;;;;;;2.97;0.60;;;;;;;6.85;100.00;103032.03;10260505;28;20132;-69
2021/12/18 22:29:18;;;;;;;1.15;0.30;;;;;;;6.86;100.00;103011.91;10256295;28;20734;-68
2021/12/18 22:34:15;;;;;;;1.92;0.70;;;;;;;6.83;100.00;103006.94;10261374;28;20131;-69
2021/12/18 22:39:11;;;;;;;4.32;0.93;;;;;;;6.69;100.00;103002.81;10259088;28;20514;-69
2021/12/18 22:44:08;;;;;;;5.65;1.30;;;;;;;6.72;100.00;103016.75;10257930;28;20049;-68
2021/12/18 22:49:14;;;;;;;3.75;0.93;;;;;;;6.62;100.00;103015.69;10256109;28;20627;-70
2021/12/18 22:54:11;;;;;;;1.10;0.40;;;;;;;6.50;100.00;103024.66;10265289;28;20037;-69
2021/12/18 22:59:08;;;;;;;1.13;0.28;;;;;;;6.50;100.00;103002.91;10267130;28;20045;-70
2021/12/18 23:04:06;;;;;;;1.23;0.38;;;;;;;6.41;100.00;103015.19;10255645;28;20163;-69
2021/12/18 23:09:05;;;;;;;2.83;0.70;;;;;;;6.43;100.00;103002.19;10257036;28;20077;-69
2021/12/18 23:14:23;;;;;;;2.15;0.95;;;;;;;6.41;100.00;103004.31;10256224;28;20037;-69
2021/12/18 23:24:23;;;;;;;5.93;1.40;;;;;;;6.49;100.00;102968.63;10263080;28;20098;-70
2021/12/18 23:29:26;;;;;;;5.10;1.10;;;;;;;6.50;100.00;102970.31;10256800;28;20048;-69
2021/12/18 23:34:23;;;;;;;3.80;0.93;;;;;;;6.38;100.00;102958.56;10258664;28;20075;-70
2021/12/18 23:39:20;;;;;;;4.55;1.70;;;;;;;6.43;100.00;102957.88;10256190;28;20522;-69
2021/12/18 23:49:31;;;;;;;6.70;1.88;;;;;;;6.45;100.00;102937.56;10252024;28;20129;-70
2021/12/18 23:54:28;;;;;;;4.50;1.92;;;;;;;6.41;100.00;102919.25;10264139;28;20565;-69
2021/12/18 23:59:24;;;;;;;6.65;1.02;;;;;;;6.48;100.00;102918.06;10264858;28;20144;-69
